Time;durP1;ratioP1;P1;durP2;ratioP2;P2;SDS_P1;SDS_P2;PMS_P1;PMS_P2;Temp;Humidity;BMP_temperature;BMP_pressure;BME280_temperature;BME280_humidity;BME280_pressure;Samples;Min_cycle;Max_cycle;Signal;HPM_P1;HPM_P2
2023/11/26 00:01:41;;;;;;;6.28;2.22;;;;;;;-0.99;72.84;99756.38;5072580;28;20409;-66
2023/11/26 00:04:08;;;;;;;8.82;2.63;;;;;;;-1.15;73.55;99762.34;5089028;28;20031;-67
2023/11/26 00:06:34;;;;;;;5.30;1.70;;;;;;;-1.13;72.82;99757.16;5095301;28;20040;-66
2023/11/26 00:08:59;;;;;;;6.70;2.10;;;;;;;-1.08;74.43;99753.44;5091276;28;20082;-66
2023/11/26 00:11:25;;;;;;;6.88;1.90;;;;;;;-1.15;73.78;99754.69;5091193;28;20028;-67
2023/11/26 00:13:51;;;;;;;5.03;1.65;;;;;;;-1.20;72.13;99756.69;5097330;28;20056;-66
2023/11/26 00:16:16;;;;;;;3.25;1.10;;;;;;;-1.01;71.68;99746.22;5090861;28;20066;-66
2023/11/26 00:18:42;;;;;;;3.70;1.35;;;;;;;-0.95;72.72;99755.28;5090113;28;20032;-67
2023/11/26 00:21:07;;;;;;;2.92;0.80;;;;;;;-0.91;71.75;99747.31;5089999;28;20048;-66
2023/11/26 00:23:33;;;;;;;6.20;1.13;;;;;;;-0.87;70.36;99747.97;5092697;28;20098;-66
2023/11/26 00:25:58;;;;;;;4.55;0.93;;;;;;;-0.68;69.95;99751.09;5091162;28;20036;-66
2023/11/26 00:28:24;;;;;;;1.17;0.47;;;;;;;-0.53;67.76;99747.63;5090967;28;20531;-66
2023/11/26 00:30:49;;;;;;;4.78;1.27;;;;;;;-0.60;69.23;99751.47;5089769;28;20491;-67
2023/11/26 00:33:19;;;;;;;4.55;0.98;;;;;;;-0.71;68.66;99762.34;5090777;28;20106;-67
2023/11/26 00:35:46;;;;;;;1.67;0.40;;;;;;;-0.44;66.71;99757.28;5101327;28;20052;-66
2023/11/26 00:38:11;;;;;;;1.85;0.35;;;;;;;-0.24;65.71;99750.97;5090621;28;20481;-67
2023/11/26 00:40:37;;;;;;;2.75;0.30;;;;;;;-0.04;64.59;99749.75;5090850;28;20108;-66
2023/11/26 00:43:03;;;;;;;2.83;0.45;;;;;;;0.07;63.84;99752.47;5096329;28;20032;-68
2023/11/26 00:45:28;;;;;;;1.35;0.20;;;;;;;0.07;64.34;99759.31;5095885;28;20138;-67
2023/11/26 00:47:53;;;;;;;1.60;0.40;;;;;;;0.05;63.87;99749.16;5099307;28;20024;-67
2023/11/26 00:50:19;;;;;;;1.80;0.30;;;;;;;0.01;64.23;99755.41;5095304;28;20032;-66
2023/11/26 00:52:45;;;;;;;2.88;0.30;;;;;;;0.03;64.48;99751.00;5090214;28;20043;-67
2023/11/26 00:55:11;;;;;;;4.55;0.30;;;;;;;0.08;63.22;99754.09;5092810;28;20141;-68
2023/11/26 00:57:36;;;;;;;3.42;0.20;;;;;;;0.14;62.87;99756.28;5095885;28;20052;-67
2023/11/26 01:00:06;;;;;;;0.98;0.20;;;;;;;0.16;62.67;99758.75;5090573;28;20779;-67
2023/11/26 01:02:33;;;;;;;1.23;0.30;;;;;;;0.17;62.81;99750.16;5099442;28;20027;-68
2023/11/26 01:04:59;;;;;;;1.25;0.30;;;;;;;0.16;62.69;99745.94;5098953;28;20063;-67
2023/11/26 01:07:25;;;;;;;1.05;0.20;;;;;;;0.13;62.53;99751.25;5090655;28;20028;-67
2023/11/26 01:09:51;;;;;;;2.83;0.30;;;;;;;0.14;62.51;99758.03;5088295;28;20067;-67
2023/11/26 01:12:17;;;;;;;2.88;0.38;;;;;;;0.15;62.09;99755.38;5105416;28;20062;-67
2023/11/26 01:14:43;;;;;;;2.05;0.22;;;;;;;0.16;62.42;99756.19;5109906;28;20028;-68
2023/11/26 01:17:08;;;;;;;2.70;0.20;;;;;;;0.19;62.10;99756.81;5110495;28;20031;-68
2023/11/26 01:19:34;;;;;;;1.10;0.15;;;;;;;0.16;61.93;99746.78;5093284;28;20028;-68
2023/11/26 01:21:59;;;;;;;0.43;0.10;;;;;;;0.16;61.91;99753.63;5097729;28;20028;-68
2023/11/26 01:24:25;;;;;;;1.00;0.30;;;;;;;0.16;62.36;99745.94;5089233;28;20127;-68
2023/11/26 01:26:50;;;;;;;0.63;0.15;;;;;;;0.13;62.44;99751.25;5088594;28;20108;-68
2023/11/26 01:29:16;;;;;;;3.30;0.20;;;;;;;0.14;62.12;99753.72;5089527;28;20032;-68
2023/11/26 01:31:41;;;;;;;0.90;0.10;;;;;;;0.15;62.02;99755.38;5094834;28;20135;-68
2023/11/26 01:34:07;;;;;;;2.33;0.40;;;;;;;0.13;62.05;99756.38;5094548;28;20028;-68
2023/11/26 01:36:33;;;;;;;1.70;0.35;;;;;;;0.11;62.74;99758.22;5089036;28;20039;-69
2023/11/26 01:38:59;;;;;;;0.60;0.20;;;;;;;0.03;64.24;99756.13;5089479;28;20032;-68
2023/11/26 01:41:24;;;;;;;2.25;0.60;;;;;;;-0.18;64.84;99755.72;5093638;28;20119;-69
2023/11/26 01:43:50;;;;;;;1.67;0.30;;;;;;;-0.22;64.88;99758.56;5099310;28;20036;-68
2023/11/26 01:46:17;;;;;;;3.92;0.70;;;;;;;-0.38;66.89;99761.22;5083216;28;20043;-68
2023/11/26 01:48:43;;;;;;;3.35;0.60;;;;;;;-0.46;66.90;99766.78;5093505;28;20039;-68
2023/11/26 01:51:11;;;;;;;1.02;0.30;;;;;;;-0.49;66.56;99774.69;5092982;28;20114;-68
2023/11/26 01:53:41;;;;;;;0.65;0.28;;;;;;;-0.44;65.33;99756.47;5093204;28;20028;-68
2023/11/26 01:56:07;;;;;;;0.75;0.20;;;;;;;-0.26;64.14;99749.44;5093384;28;20377;-68
2023/11/26 01:58:34;;;;;;;1.83;0.30;;;;;;;-0.08;63.77;99753.44;5092175;28;20024;-68
2023/11/26 02:01:00;;;;;;;4.15;0.20;;;;;;;-0.06;64.59;99754.16;5092865;28;20048;-68
2023/11/26 02:03:25;;;;;;;3.30;0.10;;;;;;;-0.09;64.89;99756.91;5093889;28;20059;-68
2023/11/26 02:05:52;;;;;;;1.67;0.10;;;;;;;-0.18;64.82;99754.91;5091699;28;20054;-68
2023/11/26 02:08:18;;;;;;;3.45;0.40;;;;;;;-0.21;65.13;99752.53;5097745;28;20028;-68
2023/11/26 02:10:44;;;;;;;1.42;0.28;;;;;;;-0.23;65.28;99757.75;5089476;28;20407;-68
2023/11/26 02:13:09;;;;;;;4.28;0.45;;;;;;;-0.18;64.58;99760.03;5093111;28;20035;-68
2023/11/26 02:15:35;;;;;;;1.65;0.20;;;;;;;-0.15;64.73;99755.53;5098969;28;20036;-68
2023/11/26 02:18:02;;;;;;;0.50;0.15;;;;;;;-0.11;64.50;99763.84;5092499;28;20082;-67
2023/11/26 02:20:29;;;;;;;2.40;0.38;;;;;;;-0.12;63.26;99762.22;5098655;28;20123;-68
2023/11/26 02:22:54;;;;;;;0.68;0.20;;;;;;;-0.11;62.94;99758.75;5092615;28;20066;-68
2023/11/26 02:25:23;;;;;;;1.70;0.10;;;;;;;-0.05;62.44;99758.38;5092675;28;20067;-68
2023/11/26 02:27:49;;;;;;;1.13;0.20;;;;;;;-0.02;62.52;99751.31;5097289;28;20462;-69
2023/11/26 02:30:20;;;;;;;1.65;0.45;;;;;;;-0.11;63.81;99756.19;5096228;28;20036;-69
2023/11/26 02:32:46;;;;;;;2.05;0.30;;;;;;;-0.24;64.52;99750.16;5092109;28;20051;-68
2023/11/26 02:35:12;;;;;;;2.08;0.47;;;;;;;-0.22;63.90;99756.00;5092450;28;20106;-68
2023/11/26 02:37:37;;;;;;;2.53;0.25;;;;;;;-0.14;63.12;99766.59;5090412;28;20035;-68
2023/11/26 02:40:05;;;;;;;1.70;0.20;;;;;;;-0.18;65.04;99754.91;5094469;28;20058;-68
2023/11/26 02:42:32;;;;;;;1.35;0.50;;;;;;;-0.32;64.64;99760.84;5093878;28;20407;-68
2023/11/26 02:44:59;;;;;;;0.82;0.28;;;;;;;-0.23;63.50;99756.91;5076633;28;20040;-68
2023/11/26 02:47:26;;;;;;;1.85;0.17;;;;;;;-0.12;62.34;99757.91;5092034;28;20119;-68
2023/11/26 02:49:52;;;;;;;0.90;0.10;;;;;;;-0.03;61.80;99759.09;5091908;28;20114;-69
2023/11/26 02:52:18;;;;;;;0.60;0.10;;;;;;;-0.02;61.88;99753.88;5074109;28;20051;-68
2023/11/26 02:54:44;;;;;;;5.20;0.20;;;;;;;-0.13;63.66;99766.50;5091249;28;20341;-69
2023/11/26 02:57:10;;;;;;;1.60;0.30;;;;;;;-0.40;65.47;99768.16;5093511;28;20036;-68
2023/11/26 02:59:35;;;;;;;1.70;0.30;;;;;;;-0.51;65.00;99766.28;5089908;28;20032;-68
2023/11/26 03:02:01;;;;;;;2.15;0.20;;;;;;;-0.29;63.13;99764.97;5093159;28;20032;-68
2023/11/26 03:04:26;;;;;;;10.00;0.20;;;;;;;-0.12;63.14;99765.59;5094992;28;20493;-68
2023/11/26 03:06:52;;;;;;;0.82;0.10;;;;;;;-0.04;62.82;99767.69;5096513;28;20482;-69
2023/11/26 03:14:45;;;;;;;1.77;0.20;;;;;;;-0.12;64.18;99769.91;5091291;28;20075;-68
2023/11/26 03:17:13;;;;;;;2.17;0.17;;;;;;;-0.12;63.49;99769.91;5090950;28;20039;-69
2023/11/26 03:19:39;;;;;;;1.80;0.10;;;;;;;-0.10;63.63;99771.44;5092744;28;20386;-68
2023/11/26 03:22:09;;;;;;;1.45;0.10;;;;;;;-0.04;62.53;99777.94;5091420;28;20028;-68
2023/11/26 03:24:35;;;;;;;1.65;0.17;;;;;;;-0.01;62.59;99770.88;5091129;28;20037;-68
2023/11/26 03:27:02;;;;;;;0.60;0.10;;;;;;;0.03;63.16;99775.78;5090529;28;20119;-68
2023/11/26 03:29:28;;;;;;;0.68;0.57;;;;;;;-0.01;63.19;99780.31;5098719;28;20073;-68
2023/11/26 03:31:53;;;;;;;1.15;0.30;;;;;;;-0.06;63.05;99777.22;5091066;28;20040;-68
2023/11/26 03:34:19;;;;;;;1.52;0.20;;;;;;;-0.11;63.54;99790.28;5089663;28;20028;-69
2023/11/26 03:36:44;;;;;;;0.47;0.13;;;;;;;-0.14;63.63;99790.47;5071834;28;20375;-68
2023/11/26 03:39:12;;;;;;;0.95;0.10;;;;;;;-0.15;63.33;99788.81;5097396;28;20020;-70
2023/11/26 03:41:38;;;;;;;0.10;0.00;;;;;;;-0.15;63.66;99793.94;5095656;28;20032;-68
2023/11/26 03:44:04;;;;;;;0.60;0.10;;;;;;;-0.11;63.64;99794.59;5094948;28;20016;-68
2023/11/26 03:46:32;;;;;;;1.85;0.10;;;;;;;0.03;61.48;99802.22;5095344;28;20031;-68
2023/11/26 03:48:59;;;;;;;1.55;0.10;;;;;;;0.11;61.71;99802.59;5092601;28;20042;-68
2023/11/26 03:51:26;;;;;;;0.70;0.03;;;;;;;0.09;62.35;99808.72;5091448;28;20032;-67
2023/11/26 03:53:51;;;;;;;2.85;0.20;;;;;;;-0.17;64.13;99805.19;5091005;28;20028;-68
2023/11/26 03:56:17;;;;;;;0.95;0.10;;;;;;;-0.57;65.32;99815.25;5090424;28;20131;-68
2023/11/26 03:58:42;;;;;;;0.95;0.17;;;;;;;-0.61;64.44;99812.97;5092145;28;20027;-68
2023/11/26 04:01:08;;;;;;;13.23;0.35;;;;;;;-0.12;61.32;99814.25;5095677;28;20122;-68
2023/11/26 04:03:33;;;;;;;3.97;0.10;;;;;;;0.26;59.49;99814.47;5090931;28;20028;-71
2023/11/26 04:06:00;;;;;;;0.68;0.10;;;;;;;0.37;59.03;99818.09;5092378;28;20360;-69
2023/11/26 04:08:26;;;;;;;0.38;0.08;;;;;;;0.33;60.00;99815.72;5087233;28;20063;-69
2023/11/26 04:10:52;;;;;;;0.32;0.10;;;;;;;0.44;58.79;99817.63;5095231;28;20376;-68
2023/11/26 04:13:18;;;;;;;1.75;0.10;;;;;;;0.49;58.62;99825.00;5094264;28;20038;-68
2023/11/26 04:15:46;;;;;;;2.92;0.10;;;;;;;0.52;59.00;99825.63;5090793;28;20495;-68
2023/11/26 04:18:12;;;;;;;0.10;0.00;;;;;;;0.54;58.01;99834.03;5093956;28;20032;-68
2023/11/26 04:20:37;;;;;;;0.63;0.10;;;;;;;0.65;58.10;99835.94;5093816;28;20444;-70
2023/11/26 04:23:03;;;;;;;3.03;0.20;;;;;;;0.72;57.64;99832.06;5090268;28;20046;-68
2023/11/26 04:25:29;;;;;;;0.50;0.00;;;;;;;0.70;57.76;99843.34;5091352;28;20075;-68
2023/11/26 04:27:55;;;;;;;0.95;0.00;;;;;;;0.83;56.44;99845.03;5090869;28;20119;-69
2023/11/26 04:30:21;;;;;;;0.47;0.00;;;;;;;0.83;57.02;99847.59;5091982;28;20387;-69
2023/11/26 04:32:47;;;;;;;0.30;0.08;;;;;;;0.82;56.61;99848.53;5089734;28;20016;-71
2023/11/26 04:35:13;;;;;;;0.43;0.32;;;;;;;0.98;55.84;99844.03;5096509;28;20457;-68
2023/11/26 04:37:38;;;;;;;1.35;0.00;;;;;;;1.08;55.93;99853.72;5089927;28;20115;-68
2023/11/26 04:40:05;;;;;;;0.28;0.10;;;;;;;1.09;56.97;99857.91;5102094;28;20020;-68
2023/11/26 04:42:34;;;;;;;0.60;0.08;;;;;;;0.72;59.02;99860.28;5092826;28;20036;-69
2023/11/26 04:45:00;;;;;;;1.05;0.17;;;;;;;0.57;59.78;99864.63;5092071;28;20475;-68
2023/11/26 04:47:25;;;;;;;0.45;0.10;;;;;;;0.53;60.00;99860.59;5094556;28;20063;-69
2023/11/26 04:49:55;;;;;;;0.45;0.10;;;;;;;0.64;60.09;99860.75;5089386;28;20028;-68
2023/11/26 04:52:22;;;;;;;0.32;0.10;;;;;;;0.81;58.11;99859.69;5096794;28;20111;-69
2023/11/26 04:54:48;;;;;;;0.52;0.10;;;;;;;0.92;58.39;99859.03;5087844;28;20491;-68
2023/11/26 04:57:13;;;;;;;1.00;0.10;;;;;;;0.93;57.89;99871.75;5094656;28;20119;-70
2023/11/26 04:59:39;;;;;;;0.55;0.10;;;;;;;0.96;57.94;99878.41;5090106;28;20505;-69
2023/11/26 05:02:09;;;;;;;0.17;0.00;;;;;;;1.00;57.29;99883.25;5090314;28;20498;-68
2023/11/26 05:04:35;;;;;;;0.22;0.00;;;;;;;1.00;58.20;99890.94;5089487;28;20066;-68
2023/11/26 05:07:00;;;;;;;0.85;0.05;;;;;;;0.96;58.95;99884.34;5089633;28;20051;-69
2023/11/26 05:09:26;;;;;;;0.90;0.00;;;;;;;0.97;58.95;99888.56;5091559;28;20058;-68
2023/11/26 05:11:52;;;;;;;0.30;0.00;;;;;;;0.88;61.12;99891.72;5089983;28;20069;-68
2023/11/26 05:14:18;;;;;;;0.13;0.00;;;;;;;0.93;59.74;99889.69;5090008;28;20020;-69
2023/11/26 05:16:43;;;;;;;0.20;0.00;;;;;;;1.22;56.63;99899.84;5093204;28;20051;-68
2023/11/26 05:19:11;;;;;;;0.15;0.00;;;;;;;1.42;55.80;99893.41;5094246;28;20036;-69
2023/11/26 05:21:38;;;;;;;0.20;0.00;;;;;;;1.99;52.01;99898.97;5092715;28;20039;-71
2023/11/26 05:24:04;;;;;;;0.20;0.00;;;;;;;2.21;52.37;99896.59;5096556;28;20089;-70
2023/11/26 05:26:31;;;;;;;1.45;0.10;;;;;;;2.12;52.39;99899.78;5093720;28;20067;-71
2023/11/26 05:28:56;;;;;;;0.88;0.10;;;;;;;2.04;52.11;99902.03;5092557;28;20378;-70
2023/11/26 05:31:22;;;;;;;1.10;0.10;;;;;;;1.91;53.08;99901.22;5097643;28;20111;-69
2023/11/26 05:33:48;;;;;;;0.68;0.10;;;;;;;1.81;54.16;99897.66;5093831;28;25100;-70
2023/11/26 05:36:14;;;;;;;0.22;0.10;;;;;;;1.74;53.70;99904.13;5094023;28;20535;-69
2023/11/26 05:38:40;;;;;;;0.13;0.00;;;;;;;2.06;52.27;99902.75;5095507;28;20074;-70
2023/11/26 05:41:06;;;;;;;1.15;0.08;;;;;;;2.32;53.72;99914.66;5096773;28;20464;-68
2023/11/26 05:43:33;;;;;;;0.38;0.10;;;;;;;2.24;53.55;99919.50;5075274;28;20039;-68
2023/11/26 05:45:59;;;;;;;0.47;0.10;;;;;;;2.19;54.02;99925.88;5094216;28;20050;-69
2023/11/26 05:48:24;;;;;;;0.10;0.00;;;;;;;2.48;52.32;99927.28;5095087;28;20487;-68
2023/11/26 05:50:49;;;;;;;0.35;0.00;;;;;;;2.48;53.15;99926.44;5093621;28;20468;-69
2023/11/26 05:53:15;;;;;;;0.40;0.00;;;;;;;2.28;54.52;99936.38;5091748;28;20034;-69
2023/11/26 05:55:40;;;;;;;0.25;0.00;;;;;;;2.19;53.07;99947.28;5078044;28;20020;-69
2023/11/26 05:58:06;;;;;;;0.85;0.30;;;;;;;2.28;52.34;99941.50;5094901;28;20403;-68
2023/11/26 06:00:31;;;;;;;0.22;0.00;;;;;;;2.24;55.21;99934.94;5092645;28;20085;-69
2023/11/26 06:02:58;;;;;;;0.50;0.08;;;;;;;2.00;56.49;99946.84;5092948;28;20028;-68
2023/11/26 06:05:23;;;;;;;3.03;0.10;;;;;;;1.56;59.74;99944.66;5098975;28;20024;-68
2023/11/26 06:07:49;;;;;;;0.20;0.00;;;;;;;1.19;58.53;99947.03;5093051;28;20031;-69
2023/11/26 06:10:15;;;;;;;0.55;0.10;;;;;;;1.43;56.85;99952.31;5098707;28;20036;-69
2023/11/26 06:12:40;;;;;;;0.93;0.10;;;;;;;1.49;56.98;99953.69;5075770;28;20051;-68
2023/11/26 06:15:08;;;;;;;1.13;0.00;;;;;;;1.50;57.06;99952.75;5093692;28;20032;-68
2023/11/26 06:17:33;;;;;;;1.42;0.00;;;;;;;1.42;59.40;99958.38;5092215;28;20047;-68
2023/11/26 06:19:59;;;;;;;0.38;0.10;;;;;;;1.10;61.44;99949.34;5095061;28;20031;-68
2023/11/26 06:22:24;;;;;;;1.08;0.03;;;;;;;0.83;63.30;99968.13;5093870;28;20035;-68
2023/11/26 06:24:50;;;;;;;0.82;0.20;;;;;;;0.64;63.20;99972.75;5092420;28;20396;-68
2023/11/26 06:27:15;;;;;;;1.67;0.10;;;;;;;0.59;64.46;99969.63;5092876;28;20063;-68
2023/11/26 06:29:41;;;;;;;4.38;0.40;;;;;;;0.56;63.62;99969.81;5090400;28;20036;-68
2023/11/26 06:32:06;;;;;;;2.05;0.50;;;;;;;0.60;62.79;99981.53;5094323;28;20028;-68
2023/11/26 06:34:32;;;;;;;1.27;0.30;;;;;;;0.86;60.94;99983.34;5090928;28;20111;-68
2023/11/26 06:36:59;;;;;;;4.35;0.82;;;;;;;0.91;62.32;99985.63;5095855;28;20375;-69
2023/11/26 06:39:25;;;;;;;3.45;0.70;;;;;;;0.76;63.49;99991.69;5093607;28;20063;-68
2023/11/26 06:41:51;;;;;;;3.67;0.75;;;;;;;0.54;64.52;99994.72;5092125;28;20472;-69
2023/11/26 06:44:16;;;;;;;4.20;1.15;;;;;;;0.38;65.54;100017.06;5096317;28;20032;-68
2023/11/26 06:46:42;;;;;;;1.83;0.28;;;;;;;0.28;64.52;100014.22;5092257;28;20370;-68
2023/11/26 06:49:07;;;;;;;1.42;0.45;;;;;;;0.33;64.79;100014.78;5091645;28;20447;-68
2023/11/26 06:51:33;;;;;;;0.80;0.20;;;;;;;0.59;61.64;100026.03;5104066;28;20035;-68
2023/11/26 06:53:58;;;;;;;0.95;0.15;;;;;;;0.90;60.21;100023.28;5092136;28;20494;-68
2023/11/26 06:56:24;;;;;;;1.75;0.00;;;;;;;1.11;58.69;100015.16;5092293;28;20047;-69
2023/11/26 06:58:50;;;;;;;0.30;0.10;;;;;;;1.19;58.24;100010.38;5093156;28;20035;-68
2023/11/26 07:01:15;;;;;;;0.32;0.00;;;;;;;1.19;58.86;100023.19;5092041;28;20547;-68
2023/11/26 07:03:42;;;;;;;0.30;0.20;;;;;;;1.16;59.15;100024.22;5096912;28;20032;-69
2023/11/26 07:06:09;;;;;;;0.10;0.00;;;;;;;1.26;58.48;100037.31;5074367;28;20040;-69
2023/11/26 07:08:38;;;;;;;0.25;0.10;;;;;;;1.35;58.68;100041.03;5091867;28;20038;-68
2023/11/26 07:11:05;;;;;;;0.60;0.10;;;;;;;1.40;57.82;100039.84;5095066;28;20559;-68
2023/11/26 07:13:31;;;;;;;1.83;0.10;;;;;;;1.64;56.37;100040.00;5090640;28;20042;-68
2023/11/26 07:15:57;;;;;;;0.20;0.10;;;;;;;1.79;55.54;100033.88;5090593;28;20028;-68
2023/11/26 07:18:23;;;;;;;0.20;0.00;;;;;;;1.86;54.93;100057.44;5091583;28;20027;-71
2023/11/26 07:20:49;;;;;;;1.15;0.10;;;;;;;1.82;55.50;100061.94;5098687;28;20042;-68
2023/11/26 07:23:14;;;;;;;0.40;0.00;;;;;;;1.87;55.37;100059.09;5092077;28;20024;-69
2023/11/26 07:25:40;;;;;;;0.28;0.20;;;;;;;1.83;56.58;100062.78;5090090;28;20040;-70
2023/11/26 07:28:11;;;;;;;0.40;0.10;;;;;;;1.82;56.11;100061.13;5096761;28;20036;-69
2023/11/26 07:30:43;;;;;;;2.38;0.10;;;;;;;1.88;56.79;100060.72;5089584;28;20087;-69
2023/11/26 07:33:09;;;;;;;0.55;0.10;;;;;;;1.93;55.74;100058.66;5097241;28;20106;-69
2023/11/26 07:35:34;;;;;;;0.73;0.10;;;;;;;2.04;55.24;100069.06;5090281;28;20032;-70
2023/11/26 07:38:04;;;;;;;1.48;0.13;;;;;;;2.13;55.18;100076.19;5090252;28;20113;-69
2023/11/26 07:40:33;;;;;;;1.23;0.10;;;;;;;2.16;54.50;100085.44;5094525;28;20076;-68
2023/11/26 07:43:04;;;;;;;0.77;0.10;;;;;;;2.10;56.16;100084.09;5090987;28;20032;-68
2023/11/26 07:45:30;;;;;;;1.65;0.20;;;;;;;2.04;57.25;100073.38;5089793;28;20452;-68
2023/11/26 07:47:56;;;;;;;0.50;0.10;;;;;;;2.02;56.76;100091.47;5091322;28;20144;-69
2023/11/26 07:50:22;;;;;;;0.55;0.00;;;;;;;2.05;56.93;100093.84;5093268;28;20040;-68
2023/11/26 07:52:47;;;;;;;0.82;0.10;;;;;;;2.07;56.32;100094.56;5090963;28;20077;-69
2023/11/26 07:55:13;;;;;;;0.93;0.20;;;;;;;2.08;56.25;100088.50;5090587;28;20324;-69
2023/11/26 07:57:40;;;;;;;0.32;0.10;;;;;;;2.17;55.99;100093.06;5090904;28;20565;-68
2023/11/26 08:00:09;;;;;;;1.08;0.10;;;;;;;2.28;55.69;100094.94;5096365;28;20103;-70
2023/11/26 08:02:36;;;;;;;0.63;0.08;;;;;;;2.33;55.74;100088.56;5092432;28;20032;-70
2023/11/26 08:05:02;;;;;;;5.35;0.10;;;;;;;2.46;54.72;100092.88;5095387;28;20506;-69
2023/11/26 08:07:29;;;;;;;0.93;0.32;;;;;;;2.58;54.77;100098.03;5096685;28;20041;-69
2023/11/26 08:09:56;;;;;;;0.47;0.15;;;;;;;2.59;53.67;100093.69;5099389;28;20040;-70
2023/11/26 08:12:23;;;;;;;1.20;0.15;;;;;;;2.64;54.44;100099.38;5092020;28;20051;-71
2023/11/26 08:14:51;;;;;;;0.73;0.17;;;;;;;2.67;54.55;100105.13;5088127;28;20109;-68
2023/11/26 08:17:17;;;;;;;0.70;0.10;;;;;;;2.73;54.74;100106.47;5093935;28;20695;-70
2023/11/26 08:19:43;;;;;;;3.05;0.20;;;;;;;2.77;54.70;100107.91;5093599;28;20472;-70
2023/11/26 08:22:09;;;;;;;1.08;0.20;;;;;;;2.83;54.09;100110.06;5080657;28;20024;-70
2023/11/26 08:24:39;;;;;;;0.77;0.20;;;;;;;2.91;54.20;100109.53;5085365;28;20495;-69
2023/11/26 08:27:06;;;;;;;1.00;0.20;;;;;;;3.00;53.88;100119.19;5089962;28;20047;-69
2023/11/26 08:29:32;;;;;;;1.15;0.20;;;;;;;3.07;54.72;100119.59;5089280;28;20158;-69
2023/11/26 08:31:58;;;;;;;1.90;0.30;;;;;;;3.13;54.18;100116.63;5090094;28;20074;-71
2023/11/26 08:34:24;;;;;;;1.42;0.40;;;;;;;3.22;53.59;100128.84;5095413;28;20034;-69
2023/11/26 08:36:51;;;;;;;1.00;0.20;;;;;;;3.29;53.29;100130.91;5089625;28;20115;-68
2023/11/26 08:39:26;;;;;;;1.10;0.10;;;;;;;3.36;53.49;100143.34;5090410;28;20036;-69
2023/11/26 08:41:52;;;;;;;1.70;0.20;;;;;;;3.43;53.09;100136.84;5089859;28;20039;-70
2023/11/26 08:44:18;;;;;;;2.53;0.20;;;;;;;3.49;53.21;100137.22;5097985;28;20028;-69
2023/11/26 08:46:43;;;;;;;2.75;0.10;;;;;;;3.57;54.31;100140.09;5091374;28;20051;-69
2023/11/26 08:49:09;;;;;;;1.58;0.22;;;;;;;3.62;53.82;100137.19;5090580;28;20024;-69
2023/11/26 08:51:36;;;;;;;0.88;0.10;;;;;;;3.70;54.61;100145.22;5092764;28;20074;-69
2023/11/26 08:54:03;;;;;;;1.58;0.10;;;;;;;3.76;53.83;100146.53;5097342;28;20064;-68
2023/11/26 08:56:30;;;;;;;0.40;0.10;;;;;;;3.85;53.64;100153.59;5096820;28;20552;-69
2023/11/26 08:58:55;;;;;;;0.30;0.10;;;;;;;3.89;54.07;100155.00;5097349;28;20036;-68
2023/11/26 09:01:20;;;;;;;0.52;0.10;;;;;;;4.04;52.72;100155.69;5097285;28;20047;-69
2023/11/26 09:03:46;;;;;;;0.28;0.10;;;;;;;4.14;53.30;100152.34;5096689;28;20119;-68
2023/11/26 09:06:12;;;;;;;1.30;0.17;;;;;;;4.24;54.40;100166.22;5097278;28;20063;-68
2023/11/26 09:08:38;;;;;;;1.58;0.20;;;;;;;4.38;52.39;100167.75;5096720;28;20110;-69
2023/11/26 09:11:03;;;;;;;2.97;0.20;;;;;;;4.45;52.97;100179.28;5097050;28;20032;-69
2023/11/26 09:13:29;;;;;;;0.52;0.10;;;;;;;4.52;53.24;100174.50;5078111;28;20036;-69
2023/11/26 09:15:55;;;;;;;0.40;0.10;;;;;;;4.69;52.13;100170.69;5096845;28;20024;-69
2023/11/26 09:18:21;;;;;;;2.30;0.10;;;;;;;4.89;51.27;100178.56;5097140;28;20028;-69
2023/11/26 09:20:50;;;;;;;0.40;0.10;;;;;;;4.90;51.80;100181.97;5096548;28;20232;-69
2023/11/26 09:23:15;;;;;;;0.82;0.10;;;;;;;4.92;52.49;100183.50;5097089;28;20028;-68
2023/11/26 09:25:41;;;;;;;1.50;0.25;;;;;;;4.87;52.25;100190.75;5096288;28;20032;-69
2023/11/26 09:28:06;;;;;;;1.52;0.10;;;;;;;4.97;51.96;100186.56;5096808;28;20123;-68
2023/11/26 09:30:34;;;;;;;1.05;0.13;;;;;;;4.97;52.74;100194.31;5096420;28;20032;-68
2023/11/26 09:33:00;;;;;;;0.65;0.10;;;;;;;5.05;52.85;100187.75;5096991;28;20024;-68
2023/11/26 09:35:25;;;;;;;0.93;0.30;;;;;;;5.21;52.27;100189.03;5096882;28;20050;-69
2023/11/26 09:37:51;;;;;;;1.58;0.20;;;;;;;5.31;51.47;100195.13;5096369;28;20056;-68
2023/11/26 09:40:17;;;;;;;0.30;0.10;;;;;;;5.36;51.00;100196.53;5096954;28;20031;-68
2023/11/26 09:42:49;;;;;;;0.70;0.20;;;;;;;5.45;52.66;100196.66;5096456;28;20197;-68
2023/11/26 09:45:16;;;;;;;1.52;0.20;;;;;;;5.47;53.04;100192.19;5096914;28;20105;-68
2023/11/26 09:47:41;;;;;;;0.70;0.25;;;;;;;5.46;53.52;100195.72;5096387;28;20122;-68
2023/11/26 09:50:09;;;;;;;1.50;0.20;;;;;;;5.55;53.49;100191.63;5078758;28;20066;-68
2023/11/26 09:52:37;;;;;;;0.80;0.20;;;;;;;5.58;52.45;100183.63;5096490;28;20044;-68
2023/11/26 09:55:03;;;;;;;1.35;0.20;;;;;;;5.81;52.68;100192.16;5096887;28;20494;-69
2023/11/26 09:57:29;;;;;;;1.58;0.15;;;;;;;5.99;51.67;100182.97;5078356;28;20040;-68
2023/11/26 09:59:56;;;;;;;0.85;0.10;;;;;;;6.11;51.14;100184.59;5096935;28;20031;-68
2023/11/26 10:02:21;;;;;;;0.93;0.20;;;;;;;6.29;52.06;100187.44;5096121;28;20446;-69
2023/11/26 10:04:52;;;;;;;0.88;0.13;;;;;;;6.40;51.21;100174.47;5092946;28;20028;-68
2023/11/26 10:07:31;;;;;;;2.78;0.20;;;;;;;6.60;52.10;100185.78;5093250;28;20513;-68
2023/11/26 10:10:12;;;;;;;0.50;0.10;;;;;;;6.60;51.56;100185.78;5085814;28;20062;-68
2023/11/26 10:12:59;;;;;;;0.70;0.20;;;;;;;6.81;49.38;100181.41;5093029;28;20114;-69
2023/11/26 10:15:28;;;;;;;;;;;;;;;6.84;48.40;100172.56;5093768;28;20027;-68
2023/11/26 10:17:59;;;;;;;1.20;0.20;;;;;;;6.78;51.88;100181.66;5085549;28;19973;-70
2023/11/26 10:20:25;;;;;;;0.50;0.20;;;;;;;6.81;52.76;100172.81;5093676;28;20062;-68
2023/11/26 10:22:52;;;;;;;0.60;0.10;;;;;;;6.95;52.32;100170.72;5093049;28;20063;-69
2023/11/26 10:25:19;;;;;;;0.55;0.28;;;;;;;6.98;51.04;100170.47;5093099;28;20036;-70
2023/11/26 10:27:46;;;;;;;0.20;0.05;;;;;;;7.11;52.41;100179.78;5074749;28;20071;-69
2023/11/26 10:30:24;;;;;;;0.50;0.10;;;;;;;7.21;50.54;100175.47;5093246;28;20035;-69
2023/11/26 10:33:09;;;;;;;1.25;0.20;;;;;;;7.13;52.01;100189.06;5092885;28;20036;-69
2023/11/26 10:35:51;;;;;;;1.23;0.20;;;;;;;7.01;51.00;100192.72;5092936;28;20028;-69
2023/11/26 10:38:21;;;;;;;1.05;0.20;;;;;;;7.47;51.39;100187.06;5093331;28;20040;-69
2023/11/26 10:40:47;;;;;;;0.82;0.10;;;;;;;7.55;51.80;100191.59;5092596;28;20032;-68
2023/11/26 10:43:13;;;;;;;0.43;0.10;;;;;;;7.46;52.17;100185.41;5093035;28;20394;-69
2023/11/26 10:45:44;;;;;;;0.45;0.10;;;;;;;7.50;49.30;100189.38;5092554;28;20575;-69
2023/11/26 10:48:13;;;;;;;0.20;0.08;;;;;;;7.51;51.32;100185.03;5092994;28;20043;-70
2023/11/26 10:50:53;;;;;;;0.00;0.00;;;;;;;7.55;51.25;100189.00;5092498;28;20063;-66
2023/11/26 10:53:25;;;;;;;0.22;0.00;;;;;;;7.43;52.39;100188.25;5093041;28;20032;-66
2023/11/26 10:55:55;;;;;;;0.32;0.10;;;;;;;7.40;51.98;100188.53;5092303;28;20020;-67
2023/11/26 10:58:28;;;;;;;0.20;0.00;;;;;;;7.52;52.05;100184.06;5092897;28;20082;-66
2023/11/26 11:00:57;;;;;;;0.30;0.00;;;;;;;7.50;52.39;100181.59;5084675;28;20612;-66
2023/11/26 11:03:23;;;;;;;1.48;0.43;;;;;;;7.61;51.38;100181.47;5092737;28;20475;-66
2023/11/26 11:05:50;;;;;;;2.88;0.10;;;;;;;7.79;48.41;100175.66;5091612;28;20105;-68
2023/11/26 11:08:16;;;;;;;0.70;0.00;;;;;;;8.06;46.12;100172.41;5092565;28;20039;-68
2023/11/26 11:10:56;;;;;;;0.10;0.00;;;;;;;8.22;47.91;100163.13;5091711;28;20115;-67
2023/11/26 11:13:26;;;;;;;0.28;0.00;;;;;;;8.22;47.96;100165.72;5092399;28;20039;-67
2023/11/26 11:15:52;;;;;;;0.15;0.00;;;;;;;8.38;46.93;100161.81;5091128;28;20024;-68
2023/11/26 11:18:26;;;;;;;0.40;0.00;;;;;;;8.26;48.31;100156.72;5092194;28;20027;-67
2023/11/26 11:20:58;;;;;;;0.45;0.00;;;;;;;8.27;46.44;100157.53;5091653;28;20472;-68
2023/11/26 11:23:37;;;;;;;0.57;0.00;;;;;;;8.35;45.13;100162.06;5092008;28;20054;-67
2023/11/26 11:26:03;;;;;;;0.13;0.00;;;;;;;8.50;46.64;100158.09;5084804;28;20024;-67
2023/11/26 11:28:55;;;;;;;0.00;0.00;;;;;;;8.54;43.03;100159.44;5091461;28;20039;-67
2023/11/26 11:31:21;;;;;;;0.30;0.00;;;;;;;8.39;48.07;100158.25;5088326;28;20066;-67
2023/11/26 11:33:59;;;;;;;0.20;0.00;;;;;;;8.16;46.01;100162.84;5091244;28;20035;-67
2023/11/26 11:36:49;;;;;;;0.50;0.00;;;;;;;8.34;44.86;100171.63;5092014;28;20043;-67
2023/11/26 11:39:42;;;;;;;0.08;0.00;;;;;;;8.25;44.66;100178.44;5086712;28;20027;-67
2023/11/26 11:42:09;;;;;;;0.10;0.00;;;;;;;8.23;48.01;100169.16;5085383;28;20479;-67